Bangor (BGR/KBGR)

Map

Destinations

Information

Location
Bangor, Maine
Local Time
14:24 / 2:24 pm
GMT Time
18:24 / 6:24 pm
Gates
Unassigned
No FAA reported delays
METAR KBGR 201753Z 03012KT 10SM SCT020 BKN026 BKN250 26/19 A2998 RMK AO2 SLP150 T02560189 10256 20200 58013
TAF KBGR 201720Z 2018/2118 03010KT P6SM BKN014 FM202100 05006KT P6SM BKN035 FM210500 04008KT P6SM SCT025